Jordan, MT

9:15 AM MDT on May 30, 2015 (GMT -0600)
Wokal-Glasgow International | | Change Station
CLOSE
Current Station
Airport
Location: Glasgow,
Elevation: 2293 ft
Nearby Weather Stations
Active Advisory: Lake Wind Advisory

Elev 2293 ft 48.21 °N, 106.62 °W | Updated 22 minutes ago

Partly Cloudy
Partly Cloudy
51 °F
Feels Like 51 °F
N
20
Wind Variable Wind from ESE

Today
High -- | Low -- °F
--% Chance of Precip.
Yesterday
High -- | Low -- °F
Precip. -- in
5:16 AM 8:54 PM
Waxing Gibbous, 90% visible
Pressure 30.18 in
Visibility 10.0 miles
Clouds Overcast 7000 ft
Dew Point 38 °F
Humidity 61%
Rainfall 0.00 in
Snow Depth Not available.
UV 1 out of 12
Pollen 8.40 out of 12
Air Quality Not available.
Flu Activity Sporadic
METAR KGGW 301453Z AUTO 11017KT 10SM OVC070 11/03 A3016 RMK AO2 SLP219 T01060033 58008

More Conditions Fewer Conditions

Pressure 30.18 in
Visibility 10.0 miles
Clouds Overcast 7000 ft
Dew Point 38 °F
Humidity 61%
Rainfall 0.00 in
Snow Depth Not available.
UV 1 out of 12
Pollen 8.40 out of 12
Air Quality Not available.
Flu Activity Sporadic
METAR KGGW 301453Z AUTO 11017KT 10SM OVC070 11/03 A3016 RMK AO2 SLP219 T01060033 58008

More Conditions Fewer Conditions

10-Day Weather Forecast

Almanac

Astronomy

May. 30, 2015 Rise Set
Actual Time
Civil Twilight
Nautical Twilight
Astronomical Twilight
Moon
Length of Visible Light
Length of Day
Tomorrow will be .
, % of the Moon is Illuminated

Today's Extremes

State Highs State Lows

Community

WunderPhotos

Upload Photos

1,825,542 photos uploaded!

WunderBlogs® & News

Nearby

Air Quality

  Air Quality AQ Index Pollutant
Not available.

Snow Depth

Station Depth Elevation

Earthquake Activity

City Distance Mag. Time & Date
Minimum magnitude displayed is 2.5.

Coastal Water Temperatures

Place Temperature

Stations

Nearby Weather Stations

Station Location Temp. Windchill Dew Point Humidity Wind Precip. Elev Updated Type
                   
Lake Wind Advisory
Statement as of 2:59 AM MDT on May 30, 2015

... Lake Wind Advisory remains in effect from 9 am this morning to
9 PM MDT this evening for Fort Peck Lake...

A lake Wind Advisory for Fort Peck Lake remains in effect from
9 am this morning to 9 PM MDT this evening.

* Timing... late this morning through this evening.

* Winds... southeast at 15 to 30 mph.

* Impacts... these winds will make open waters of the lake...
particularly on the Dry Arm... rough and hazardous... and may
result in high waves which could tip or swamp smaller craft.

Precautionary/preparedness actions...

Boaters should use caution if venturing onto Fort Peck Lake. For
your personal safety... avoid the open waters and stay close to shore
or in protected areas.